createdAt,value
2019-05-17T00:01:46.919Z,10.28
2019-05-17T00:06:51.422Z,9.93
2019-05-17T00:11:56.852Z,10.15
2019-05-17T00:17:01.388Z,10.35
2019-05-17T00:22:07.434Z,10.49
2019-05-17T00:27:12.053Z,10.24
2019-05-17T00:32:17.156Z,10.29
2019-05-17T00:37:21.610Z,10.14
2019-05-17T00:42:26.424Z,10.15
2019-05-17T00:47:31.043Z,10.13
2019-05-17T00:52:36.899Z,10.21
2019-05-17T00:57:41.556Z,10.45
2019-05-17T01:02:46.893Z,10.28
2019-05-17T01:07:51.451Z,10.35
2019-05-17T01:12:57.531Z,10.51
2019-05-17T01:18:02.183Z,10.40
2019-05-17T01:23:07.646Z,10.46
2019-05-17T01:28:13.271Z,10.08
2019-05-17T01:33:17.711Z,10.22
2019-05-17T01:38:22.115Z,10.20
2019-05-17T01:43:27.324Z,10.24
2019-05-17T01:48:32.809Z,10.30
2019-05-17T01:53:37.177Z,10.33
2019-05-17T01:58:41.584Z,10.37
2019-05-17T02:03:46.917Z,10.26
2019-05-17T02:08:51.768Z,10.21
2019-05-17T02:13:56.278Z,10.15
2019-05-17T02:19:00.604Z,10.12
2019-05-17T02:24:07.762Z,10.25
2019-05-17T02:29:12.070Z,10.25
2019-05-17T02:34:16.522Z,10.17
2019-05-17T02:39:23.269Z,10.17
2019-05-17T02:44:26.908Z,10.19
2019-05-17T02:49:33.111Z,10.19
2019-05-17T02:54:37.357Z,10.20
2019-05-17T02:59:43.312Z,10.17
2019-05-17T03:04:47.861Z,10.09
2019-05-17T03:09:53.407Z,9.86
2019-05-17T03:14:58.320Z,10.12
2019-05-17T03:20:04.247Z,10.13
2019-05-17T03:25:08.921Z,10.03
2019-05-17T03:30:18.867Z,10.06
2019-05-17T03:35:25.678Z,10.12
2019-05-17T03:40:58.453Z,10.18
2019-05-17T03:45:33.947Z,10.13
2019-05-17T03:50:38.357Z,9.99
2019-05-17T03:55:43.113Z,10.12
2019-05-17T04:00:47.553Z,10.01
2019-05-17T04:05:52.898Z,10.06
2019-05-17T04:10:57.615Z,9.66
2019-05-17T04:16:05.912Z,10.12
2019-05-17T04:21:08.088Z,10.21
2019-05-17T04:26:13.526Z,10.19
2019-05-17T04:31:18.201Z,9.97
2019-05-17T04:36:22.783Z,10.56
2019-05-17T04:41:44.688Z,10.23
2019-05-17T04:46:33.243Z,10.70
2019-05-17T04:51:37.683Z,11.05
2019-05-17T04:56:42.706Z,11.62
2019-05-17T05:01:47.855Z,11.77
2019-05-17T05:06:52.837Z,11.75
2019-05-17T05:12:02.617Z,12.03
2019-05-17T05:17:05.218Z,11.52
2019-05-17T05:22:09.552Z,11.95
2019-05-17T05:27:13.957Z,12.78
2019-05-17T05:32:18.309Z,12.44
2019-05-17T05:37:23.260Z,12.95
2019-05-17T05:42:27.817Z,13.06
2019-05-17T05:47:32.417Z,13.65
2019-05-17T05:52:36.851Z,13.46
2019-05-17T05:57:41.965Z,13.71
2019-05-17T06:02:46.877Z,13.71
2019-05-17T06:07:52.251Z,13.81
2019-05-17T06:12:56.881Z,13.84
2019-05-17T06:18:03.034Z,14.67
2019-05-17T06:23:07.357Z,14.41
2019-05-17T06:28:11.808Z,14.21
2019-05-17T06:33:29.918Z,13.57
2019-05-17T06:38:22.583Z,14.16
2019-05-17T06:43:26.988Z,13.94
2019-05-17T06:48:32.087Z,13.51
2019-05-17T06:53:37.488Z,13.95
2019-05-17T06:58:41.873Z,13.90
2019-05-17T07:03:46.267Z,13.53
2019-05-17T07:08:50.678Z,13.64
2019-05-17T07:13:55.051Z,14.10
2019-05-17T07:18:59.802Z,13.98
2019-05-17T07:24:04.364Z,14.08
2019-05-17T07:29:10.048Z,14.36
2019-05-17T07:34:15.627Z,14.17
2019-05-17T07:39:20.480Z,14.48
2019-05-17T07:44:24.942Z,14.83
2019-05-17T07:49:29.475Z,14.61
2019-05-17T07:54:34.292Z,15.14
2019-05-17T07:59:39.710Z,14.12
2019-05-17T08:04:44.212Z,14.95
2019-05-17T08:09:50.626Z,15.09
2019-05-17T08:14:56.301Z,15.57
2019-05-17T08:20:00.972Z,15.78
2019-05-17T08:25:13.057Z,15.62
2019-05-17T08:30:23.821Z,15.72
2019-05-17T08:35:37.264Z,15.46
2019-05-17T08:40:43.706Z,15.81
2019-05-17T08:45:59.299Z,15.91
2019-05-17T08:51:10.568Z,16.50
2019-05-17T08:56:22.879Z,16.50
2019-05-17T09:01:41.731Z,16.22
2019-05-17T09:06:50.292Z,15.77
2019-05-17T09:11:54.216Z,16.18
2019-05-17T09:17:00.368Z,16.26
2019-05-17T09:22:04.858Z,16.48
2019-05-17T09:27:10.159Z,16.67
2019-05-17T09:32:15.536Z,16.73
2019-05-17T09:37:22.485Z,17.22
2019-05-17T09:42:25.960Z,17.51
2019-05-17T09:47:30.313Z,17.51
2019-05-17T09:52:34.626Z,17.68
2019-05-17T09:57:40.870Z,17.61
2019-05-17T10:02:45.564Z,17.79
2019-05-17T10:07:50.695Z,17.39
2019-05-17T10:12:55.284Z,17.27
2019-05-17T10:18:00.579Z,17.57
2019-05-17T10:23:05.217Z,17.95
2019-05-17T10:28:10.178Z,17.85
2019-05-17T10:33:14.702Z,18.14
2019-05-17T10:38:19.505Z,18.07
2019-05-17T10:43:24.091Z,17.94
2019-05-17T10:48:30.126Z,17.77
2019-05-17T10:53:34.677Z,18.11
2019-05-17T10:58:39.948Z,17.78
2019-05-17T11:03:44.615Z,17.48
2019-05-17T11:08:50.167Z,17.47
2019-05-17T11:13:54.636Z,17.87
2019-05-17T11:18:59.052Z,17.83
2019-05-17T11:24:03.472Z,18.23
2019-05-17T11:29:07.823Z,18.33
2019-05-17T11:34:12.234Z,18.43
2019-05-17T11:39:16.552Z,18.13
2019-05-17T11:44:20.923Z,18.07
2019-05-17T11:49:25.261Z,17.94
2019-05-17T11:54:29.683Z,17.82
2019-05-17T11:59:34.042Z,17.64
2019-05-17T12:04:38.464Z,17.55
2019-05-17T12:09:42.811Z,17.64
2019-05-17T12:14:47.162Z,17.49
2019-05-17T12:19:51.577Z,18.02
2019-05-17T12:24:56.111Z,18.68
2019-05-17T12:30:00.505Z,18.44
2019-05-17T12:35:05.449Z,18.56
2019-05-17T12:40:10.564Z,18.44
2019-05-17T12:45:14.999Z,18.19
2019-05-17T12:50:19.964Z,18.40
2019-05-17T12:55:24.304Z,18.49
2019-05-17T13:00:28.710Z,18.77
2019-05-17T13:05:33.075Z,18.42
2019-05-17T13:10:37.418Z,17.94
2019-05-17T13:15:41.836Z,17.94
2019-05-17T13:20:46.270Z,18.01
2019-05-17T13:25:50.657Z,17.99
2019-05-17T13:30:55.009Z,18.19
2019-05-17T13:35:59.402Z,18.33
2019-05-17T13:41:03.791Z,18.46
2019-05-17T13:46:08.217Z,18.24
2019-05-17T13:51:12.549Z,18.09
2019-05-17T13:56:17.004Z,18.21
2019-05-17T14:01:21.358Z,18.04
2019-05-17T14:06:25.724Z,18.13
2019-05-17T14:11:30.077Z,18.44
2019-05-17T14:16:34.889Z,18.49
2019-05-17T14:21:39.433Z,18.14
2019-05-17T14:26:43.782Z,18.32
2019-05-17T14:31:48.201Z,18.22
2019-05-17T14:36:52.558Z,18.15
2019-05-17T14:41:56.936Z,18.17
2019-05-17T14:47:01.304Z,18.08
2019-05-17T14:52:05.668Z,18.01
2019-05-17T14:57:10.216Z,18.07
2019-05-17T15:02:14.642Z,18.23
2019-05-17T15:07:19.003Z,17.98
2019-05-17T15:12:28.432Z,18.06
2019-05-17T15:17:29.439Z,18.21
2019-05-17T15:22:33.791Z,17.97
2019-05-17T15:27:38.952Z,17.91
2019-05-17T15:32:43.379Z,17.78
2019-05-17T15:37:47.835Z,17.78
2019-05-17T15:42:52.184Z,17.88
2019-05-17T15:47:57.005Z,17.91
2019-05-17T15:53:02.539Z,17.88
2019-05-17T15:58:06.992Z,17.87
2019-05-17T16:03:11.473Z,18.05
2019-05-17T16:08:15.839Z,17.93
2019-05-17T16:13:20.258Z,17.81
2019-05-17T16:18:24.885Z,17.86
2019-05-17T16:23:29.230Z,17.84
2019-05-17T16:28:33.674Z,17.77
2019-05-17T16:33:38.126Z,17.87
2019-05-17T16:38:42.513Z,17.82
2019-05-17T16:43:46.919Z,17.83
2019-05-17T16:48:51.340Z,17.98
2019-05-17T16:53:55.685Z,17.88
2019-05-17T16:59:00.082Z,17.71
2019-05-17T17:04:04.740Z,17.77
2019-05-17T17:09:09.173Z,17.78
2019-05-17T17:14:13.535Z,17.72
2019-05-17T17:19:18.015Z,17.78
2019-05-17T17:24:22.368Z,17.69
2019-05-17T17:29:26.815Z,17.71
2019-05-17T17:34:31.151Z,17.69
2019-05-17T17:39:36.578Z,17.60
2019-05-17T17:44:40.982Z,17.56
2019-05-17T17:49:45.334Z,17.56
2019-05-17T17:54:49.709Z,17.38
2019-05-17T17:59:55.689Z,17.38
2019-05-17T18:05:00.385Z,17.39
2019-05-17T18:10:06.518Z,17.24
2019-05-17T18:15:12.909Z,17.23
2019-05-17T18:20:17.283Z,17.12
2019-05-17T18:25:21.718Z,17.10
2019-05-17T18:30:41.237Z,16.96
2019-05-17T18:35:48.638Z,16.93
2019-05-17T18:40:52.983Z,16.74
2019-05-17T18:45:57.382Z,16.75
2019-05-17T18:51:01.885Z,16.62
2019-05-17T18:56:06.240Z,16.54
2019-05-17T19:01:11.640Z,16.43
2019-05-17T19:06:16.013Z,16.31
2019-05-17T19:11:20.366Z,16.19
2019-05-17T19:16:24.679Z,16.15
2019-05-17T19:21:29.232Z,16.01
2019-05-17T19:26:33.600Z,15.79
2019-05-17T19:31:37.932Z,15.70
2019-05-17T19:36:42.281Z,15.65
2019-05-17T19:41:49.474Z,15.59
2019-05-17T19:46:53.852Z,15.60
2019-05-17T19:51:58.223Z,15.52
2019-05-17T19:57:02.592Z,15.48
2019-05-17T20:02:06.940Z,15.42
2019-05-17T20:07:11.340Z,15.41
2019-05-17T20:12:15.674Z,15.31
2019-05-17T20:17:20.085Z,15.24
2019-05-17T20:22:24.532Z,15.16
2019-05-17T20:27:29.040Z,15.10
2019-05-17T20:32:33.483Z,15.08
2019-05-17T20:37:38.425Z,14.89
2019-05-17T20:42:42.764Z,14.70
2019-05-17T20:47:50.327Z,14.80
2019-05-17T20:52:56.342Z,14.75
2019-05-17T20:58:00.776Z,14.69
2019-05-17T21:03:05.472Z,14.65
2019-05-17T21:08:10.037Z,14.55
2019-05-17T21:13:14.424Z,14.56
2019-05-17T21:18:18.833Z,14.48
2019-05-17T21:23:24.291Z,14.40
2019-05-17T21:28:30.311Z,14.35
2019-05-17T21:33:34.729Z,14.04
2019-05-17T21:38:39.059Z,13.95
2019-05-17T21:43:44.753Z,13.80
2019-05-17T21:48:49.382Z,13.88
2019-05-17T21:53:53.738Z,13.89
2019-05-17T21:58:58.124Z,13.85
2019-05-17T22:04:02.515Z,13.82
2019-05-17T22:09:07.787Z,13.61
2019-05-17T22:14:13.628Z,13.63
2019-05-17T22:19:17.993Z,13.44
2019-05-17T22:24:22.381Z,13.45
2019-05-17T22:29:26.882Z,13.35
2019-05-17T22:34:31.234Z,13.35
2019-05-17T22:39:35.612Z,13.22
2019-05-17T22:44:40.049Z,13.21
2019-05-17T22:49:44.396Z,13.01
2019-05-17T22:54:48.776Z,13.05
2019-05-17T22:59:53.119Z,13.05
2019-05-17T23:04:57.464Z,12.93
2019-05-17T23:10:01.899Z,12.83
2019-05-17T23:15:07.641Z,12.77
2019-05-17T23:20:12.830Z,12.71
2019-05-17T23:25:17.211Z,12.57
2019-05-17T23:30:22.576Z,12.43
2019-05-17T23:35:27.085Z,12.44
2019-05-17T23:40:32.308Z,12.42
2019-05-17T23:45:38.602Z,12.38
2019-05-17T23:50:43.220Z,12.30
2019-05-17T23:55:48.600Z,12.29
